TAM3902 SBSP-SBRJ
Flight info
| Callsign | TAM3902 |
|---|---|
| Flight time | 0h 38m |
| Altitude | 25000 |
| Route | NIBRU UZ171 KEVUN |
| Aircraft | A320/M-SDE3FGHIRWY/LB1 |
Departure
| Time | 2026-04-30 18:07 |
|---|---|
| Airport | Congonhas–Deputado Freitas Nobre Airport (SBSP) |
Arrival
| Time | 2026-04-30 18:45 |
|---|---|
| Airport | Santos Dumont Airport (SBRJ) |
| Time | Latitude | Longitude | Altitude | Speed | Heading |
|---|---|---|---|---|---|
| 2026-04-30 17:55 | -23.62511 | -46.65966 | 2600 ft | 0 kts | 237° |
| 2026-04-30 18:00 | -23.62494 | -46.65933 | 2601 ft | 4 kts | 266° |
| 2026-04-30 18:00 | -23.62511 | -46.65910 | 2601 ft | 0 kts | 327° |
| 2026-04-30 18:02 | -23.62504 | -46.65915 | 2601 ft | 3 kts | 327° |
| 2026-04-30 18:03 | -23.62386 | -46.65953 | 2601 ft | 9 kts | 340° |
| 2026-04-30 18:04 | -23.62159 | -46.66097 | 2599 ft | 15 kts | 326° |
| 2026-04-30 18:05 | -23.62127 | -46.66120 | 2598 ft | 1 kts | 326° |
| 2026-04-30 18:06 | -23.62503 | -46.65759 | 2605 ft | 99 kts | 147° |
| 2026-04-30 18:07 | -23.65530 | -46.62683 | 4021 ft | 206 kts | 121° |
| 2026-04-30 18:08 | -23.67295 | -46.57390 | 5375 ft | 279 kts | 84° |
| 2026-04-30 18:09 | -23.66171 | -46.48672 | 8712 ft | 300 kts | 82° |
| 2026-04-30 18:10 | -23.65369 | -46.39058 | 10968 ft | 345 kts | 85° |
| 2026-04-30 18:11 | -23.64495 | -46.28394 | 13664 ft | 359 kts | 86° |
| 2026-04-30 18:11 | -23.63776 | -46.20153 | 15327 ft | 370 kts | 85° |
| 2026-04-30 18:12 | -23.63048 | -46.11654 | 16946 ft | 381 kts | 84° |
| 2026-04-30 18:13 | -23.62666 | -46.07245 | 17756 ft | 386 kts | 84° |
| 2026-04-30 18:13 | -23.61987 | -45.99482 | 19080 ft | 396 kts | 84° |
| 2026-04-30 18:14 | -23.61368 | -45.92465 | 20174 ft | 404 kts | 84° |
| 2026-04-30 18:15 | -23.60539 | -45.83143 | 21538 ft | 417 kts | 84° |
| 2026-04-30 18:15 | -23.59697 | -45.73552 | 22903 ft | 430 kts | 84° |
| 2026-04-30 18:16 | -23.59121 | -45.67033 | 23759 ft | 439 kts | 83° |
| 2026-04-30 18:16 | -23.58521 | -45.60354 | 24571 ft | 445 kts | 83° |
| 2026-04-30 18:17 | -23.58217 | -45.56984 | 24921 ft | 448 kts | 83° |
| 2026-04-30 18:17 | -23.57907 | -45.53595 | 25041 ft | 448 kts | 83° |
| 2026-04-30 18:17 | -23.56070 | -45.47341 | 25076 ft | 430 kts | 67° |
| 2026-04-30 18:18 | -23.55111 | -45.44260 | 25086 ft | 428 kts | 70° |
| 2026-04-30 18:18 | -23.54493 | -45.42230 | 25075 ft | 428 kts | 70° |
| 2026-04-30 18:18 | -23.54269 | -45.41491 | 25071 ft | 428 kts | 70° |
| 2026-04-30 18:19 | -23.53334 | -45.38418 | 25067 ft | 427 kts | 70° |
| 2026-04-30 18:19 | -23.52396 | -45.35349 | 25073 ft | 427 kts | 70° |
| 2026-04-30 18:19 | -23.51456 | -45.32283 | 25075 ft | 427 kts | 69° |
| 2026-04-30 18:19 | -23.50515 | -45.29219 | 25071 ft | 426 kts | 69° |
| 2026-04-30 18:20 | -23.49574 | -45.26150 | 25075 ft | 427 kts | 69° |
| 2026-04-30 18:20 | -23.48645 | -45.23118 | 25077 ft | 427 kts | 70° |
| 2026-04-30 18:20 | -23.47704 | -45.20044 | 25080 ft | 427 kts | 70° |
| 2026-04-30 18:20 | -23.46764 | -45.16976 | 25077 ft | 427 kts | 70° |
| 2026-04-30 18:21 | -23.45823 | -45.13905 | 25084 ft | 427 kts | 70° |
| 2026-04-30 18:21 | -23.44880 | -45.10835 | 25084 ft | 427 kts | 69° |
| 2026-04-30 18:21 | -23.43941 | -45.07771 | 25088 ft | 427 kts | 70° |
| 2026-04-30 18:21 | -23.43001 | -45.04700 | 25090 ft | 427 kts | 70° |
| 2026-04-30 18:22 | -23.42062 | -45.01632 | 25092 ft | 427 kts | 70° |
| 2026-04-30 18:22 | -23.40182 | -44.95496 | 25095 ft | 427 kts | 69° |
| 2026-04-30 18:22 | -23.39552 | -44.93454 | 25095 ft | 427 kts | 69° |
| 2026-04-30 18:23 | -23.38606 | -44.90395 | 25093 ft | 427 kts | 69° |
| 2026-04-30 18:23 | -23.37660 | -44.87336 | 25090 ft | 427 kts | 69° |
| 2026-04-30 18:23 | -23.36705 | -44.84247 | 24354 ft | 437 kts | 69° |
| 2026-04-30 18:23 | -23.35722 | -44.81077 | 23601 ft | 445 kts | 70° |
| 2026-04-30 18:24 | -23.33751 | -44.74704 | 22468 ft | 442 kts | 70° |
| 2026-04-30 18:24 | -23.32779 | -44.71546 | 22006 ft | 438 kts | 70° |
| 2026-04-30 18:24 | -23.31817 | -44.68421 | 21551 ft | 434 kts | 70° |
| 2026-04-30 18:25 | -23.30857 | -44.65312 | 21115 ft | 430 kts | 70° |
| 2026-04-30 18:25 | -23.28972 | -44.59238 | 20235 ft | 423 kts | 70° |
| 2026-04-30 18:25 | -23.28035 | -44.56218 | 19807 ft | 420 kts | 70° |
| 2026-04-30 18:26 | -23.26166 | -44.50223 | 18901 ft | 412 kts | 70° |
| 2026-04-30 18:26 | -23.25261 | -44.47323 | 18463 ft | 409 kts | 71° |
| 2026-04-30 18:26 | -23.24353 | -44.44405 | 17957 ft | 405 kts | 71° |
| 2026-04-30 18:27 | -23.22568 | -44.38668 | 16928 ft | 397 kts | 71° |
| 2026-04-30 18:27 | -23.21684 | -44.35841 | 16422 ft | 393 kts | 70° |
| 2026-04-30 18:28 | -23.19940 | -44.30267 | 15406 ft | 386 kts | 70° |
| 2026-04-30 18:28 | -23.19082 | -44.27516 | 14931 ft | 382 kts | 71° |
| 2026-04-30 18:28 | -23.17388 | -44.22092 | 14019 ft | 375 kts | 70° |
| 2026-04-30 18:29 | -23.16548 | -44.19417 | 13490 ft | 372 kts | 70° |
| 2026-04-30 18:29 | -23.14349 | -44.12409 | 12087 ft | 364 kts | 70° |
| 2026-04-30 18:30 | -23.12726 | -44.07249 | 11119 ft | 357 kts | 70° |
| 2026-04-30 18:30 | -23.11611 | -44.03739 | 10465 ft | 354 kts | 70° |
| 2026-04-30 18:31 | -23.10814 | -44.01220 | 10012 ft | 351 kts | 70° |
| 2026-04-30 18:31 | -23.09291 | -43.96395 | 9737 ft | 325 kts | 70° |
| 2026-04-30 18:32 | -23.07884 | -43.91939 | 9466 ft | 304 kts | 70° |
| 2026-04-30 18:32 | -23.07203 | -43.89777 | 9177 ft | 301 kts | 71° |
| 2026-04-30 18:32 | -23.05852 | -43.85509 | 8515 ft | 297 kts | 71° |
| 2026-04-30 18:33 | -23.05445 | -43.84228 | 8322 ft | 296 kts | 71° |
| 2026-04-30 18:33 | -23.04108 | -43.80012 | 7648 ft | 295 kts | 71° |
| 2026-04-30 18:33 | -23.03442 | -43.77913 | 7341 ft | 293 kts | 71° |
| 2026-04-30 18:34 | -23.02779 | -43.75831 | 7049 ft | 291 kts | 71° |
| 2026-04-30 18:34 | -23.01504 | -43.71831 | 6430 ft | 289 kts | 71° |
| 2026-04-30 18:35 | -23.00937 | -43.70044 | 6166 ft | 286 kts | 71° |
| 2026-04-30 18:35 | -23.00290 | -43.68006 | 6027 ft | 286 kts | 72° |
| 2026-04-30 18:35 | -22.99647 | -43.65987 | 6032 ft | 287 kts | 72° |
| 2026-04-30 18:36 | -22.98684 | -43.62967 | 6071 ft | 273 kts | 71° |
| 2026-04-30 18:36 | -22.98067 | -43.61037 | 6027 ft | 266 kts | 71° |
| 2026-04-30 18:36 | -22.96860 | -43.57267 | 6015 ft | 266 kts | 71° |
| 2026-04-30 18:37 | -22.96255 | -43.55372 | 6025 ft | 266 kts | 71° |
| 2026-04-30 18:37 | -22.95646 | -43.53469 | 6024 ft | 267 kts | 71° |
| 2026-04-30 18:37 | -22.95039 | -43.51570 | 6017 ft | 266 kts | 71° |
| 2026-04-30 18:37 | -22.94320 | -43.49709 | 5859 ft | 270 kts | 65° |
| 2026-04-30 18:38 | -22.93540 | -43.47864 | 5557 ft | 268 kts | 65° |
| 2026-04-30 18:38 | -22.92765 | -43.46040 | 5267 ft | 265 kts | 65° |
| 2026-04-30 18:38 | -22.91996 | -43.44231 | 4974 ft | 263 kts | 65° |
| 2026-04-30 18:38 | -22.91234 | -43.42440 | 4682 ft | 261 kts | 65° |
| 2026-04-30 18:39 | -22.90479 | -43.40660 | 4383 ft | 259 kts | 65° |
| 2026-04-30 18:39 | -22.89728 | -43.38889 | 4075 ft | 258 kts | 65° |
| 2026-04-30 18:39 | -22.88976 | -43.37120 | 3751 ft | 257 kts | 65° |
| 2026-04-30 18:39 | -22.88240 | -43.35366 | 3411 ft | 254 kts | 67° |
| 2026-04-30 18:40 | -22.87613 | -43.33588 | 2846 ft | 252 kts | 70° |
| 2026-04-30 18:40 | -22.87037 | -43.31796 | 2276 ft | 252 kts | 71° |
| 2026-04-30 18:40 | -22.86475 | -43.29995 | 2039 ft | 248 kts | 71° |
| 2026-04-30 18:40 | -22.85935 | -43.28269 | 2006 ft | 234 kts | 71° |
| 2026-04-30 18:41 | -22.85511 | -43.26633 | 2012 ft | 217 kts | 86° |
| 2026-04-30 18:41 | -22.85643 | -43.25094 | 2024 ft | 196 kts | 99° |
| 2026-04-30 18:41 | -22.85839 | -43.23737 | 2031 ft | 170 kts | 98° |
| 2026-04-30 18:41 | -22.86000 | -43.22569 | 1859 ft | 147 kts | 98° |
| 2026-04-30 18:42 | -22.86134 | -43.21505 | 1559 ft | 140 kts | 98° |
| 2026-04-30 18:42 | -22.86546 | -43.19498 | 1028 ft | 134 kts | 108° |
| 2026-04-30 18:42 | -22.86885 | -43.18552 | 859 ft | 135 kts | 114° |
| 2026-04-30 18:45 | -22.91307 | -43.16507 | 22 ft | 20 kts | 356° |
| 2026-04-30 18:45 | -22.91177 | -43.16518 | 22 ft | 11 kts | 343° |
| 2026-04-30 18:45 | -22.91135 | -43.16576 | 22 ft | 6 kts | 267° |
| 2026-04-30 18:46 | -22.91136 | -43.16589 | 22 ft | 0 kts | 265° |